Terminal Aerodrome Forecast
Issued by NWS Portland, OR

Home | Current Version | Previous Version | Text Only | Print | Product List | Glossary On
Versions: 1 2 3 4 5 6 7 8 9 10 11 12 13 14 15 16 17 18 19 20 21 22 23 24 25 26
000
FTUS46 KPQR 050540
TAFPDX
TAF
KPDX 050540Z 0506/0606 34012KT P6SM BKN035 BKN080 OVC120
     FM050700 32006KT P6SM BKN035 OVC060
     FM050900 32006KT P6SM BKN025 OVC035
     FM051900 31009KT P6SM FEW030 SCT060 BKN120
     FM060200 33011KT P6SM FEW060 SCT120=

USA.gov is the U.S. government's official web portal to all federal, state and local government web resources and services.